createdAt,value
2022-08-03T00:02:20.162Z,100581.44
2022-08-03T00:04:48.644Z,100577.92
2022-08-03T00:07:17.214Z,100580.33
2022-08-03T00:09:45.775Z,100576.75
2022-08-03T00:12:14.560Z,100578.75
2022-08-03T00:14:43.232Z,100577.43
2022-08-03T00:17:12.980Z,100581.48
2022-08-03T00:19:41.942Z,100575.19
2022-08-03T00:22:10.370Z,100578.36
2022-08-03T00:24:38.819Z,100580.18
2022-08-03T00:27:07.200Z,100582.85
2022-08-03T00:29:59.488Z,100583.16
2022-08-03T00:32:24.832Z,100582.66
2022-08-03T00:34:57.893Z,100577.13
2022-08-03T00:37:41.357Z,100580.91
2022-08-03T00:40:13.769Z,100581.59
2022-08-03T00:42:50.486Z,100582.18
2022-08-03T00:45:19.751Z,100579.14
2022-08-03T00:47:48.494Z,100584.23
2022-08-03T00:50:18.368Z,100583.65
2022-08-03T00:52:47.466Z,100584.80
2022-08-03T00:55:17.019Z,100584.02
2022-08-03T00:57:46.328Z,100586.21
2022-08-03T01:00:18.640Z,100584.35
2022-08-03T01:02:47.357Z,100586.29
2022-08-03T01:05:15.821Z,100589.48
2022-08-03T01:07:59.437Z,100588.53
2022-08-03T01:10:37.462Z,100589.47
2022-08-03T01:14:03.537Z,100586.02
2022-08-03T01:16:17.939Z,100588.86
2022-08-03T01:18:52.898Z,100588.75
2022-08-03T01:21:28.959Z,100589.55
2022-08-03T01:24:06.950Z,100587.94
2022-08-03T01:27:03.325Z,100589.81
2022-08-03T01:30:01.567Z,100590.41
2022-08-03T01:32:53.392Z,100592.04
2022-08-03T01:35:38.425Z,100590.55
2022-08-03T01:38:11.371Z,100586.65
2022-08-03T01:40:41.854Z,100589.86
2022-08-03T01:43:15.049Z,100587.66
2022-08-03T01:46:04.320Z,100585.14
2022-08-03T01:48:34.224Z,100583.82
2022-08-03T01:51:03.118Z,100584.63
2022-08-03T01:53:33.997Z,100580.56
2022-08-03T01:56:05.603Z,100579.14
2022-08-03T01:58:38.101Z,100577.02
2022-08-03T02:01:09.750Z,100569.71
2022-08-03T02:04:00.697Z,100569.48
2022-08-03T02:06:59.814Z,100566.27
2022-08-03T02:09:23.455Z,100565.00
2022-08-03T02:11:53.184Z,100560.73
2022-08-03T02:14:26.803Z,100563.05
2022-08-03T02:16:57.291Z,100563.34
2022-08-03T02:19:32.499Z,100563.17
2022-08-03T02:22:06.064Z,100562.45
2022-08-03T02:24:34.666Z,100557.67
2022-08-03T02:27:06.759Z,100559.11
2022-08-03T02:29:41.005Z,100557.41
2022-08-03T02:32:14.990Z,100560.55
2022-08-03T02:34:48.837Z,100559.75
2022-08-03T02:37:19.966Z,100559.79
2022-08-03T02:39:52.770Z,100565.70
2022-08-03T02:42:24.157Z,100561.73
2022-08-03T02:44:55.718Z,100565.03
2022-08-03T02:47:26.745Z,100567.30
2022-08-03T02:49:57.348Z,100568.38
2022-08-03T02:52:32.623Z,100571.48
2022-08-03T02:55:04.565Z,100571.84
2022-08-03T02:57:35.908Z,100573.02
2022-08-03T03:00:07.535Z,100569.20
2022-08-03T03:02:36.928Z,100573.15
2022-08-03T03:05:55.110Z,100577.60
2022-08-03T03:07:57.165Z,100576.13
2022-08-03T03:10:27.080Z,100574.05
2022-08-03T03:12:58.235Z,100574.43
2022-08-03T03:15:29.069Z,100578.59
2022-08-03T03:17:59.167Z,100582.45
2022-08-03T03:20:30.046Z,100586.55
2022-08-03T03:23:01.293Z,100586.34
2022-08-03T03:25:36.448Z,100585.63
2022-08-03T03:28:06.376Z,100583.67
2022-08-03T03:30:35.508Z,100585.65
2022-08-03T03:33:04.727Z,100586.37
2022-08-03T03:35:38.906Z,100585.02
2022-08-03T03:38:08.843Z,100586.42
2022-08-03T03:40:39.711Z,100587.33
2022-08-03T03:43:11.177Z,100583.38
2022-08-03T03:45:42.117Z,100588.33
2022-08-03T03:48:11.319Z,100586.02
2022-08-03T03:50:40.514Z,100589.44
2022-08-03T03:53:11.583Z,100592.39
2022-08-03T03:55:57.735Z,100591.30
2022-08-03T03:58:29.286Z,100594.50
2022-08-03T04:00:57.734Z,100593.34
2022-08-03T04:03:26.407Z,100594.38
2022-08-03T04:06:13.376Z,100595.88
2022-08-03T04:09:00.061Z,100599.01
2022-08-03T04:11:32.709Z,100599.58
2022-08-03T04:14:07.452Z,100601.78
2022-08-03T04:16:43.848Z,100602.44
2022-08-03T04:19:22.948Z,100604.12
2022-08-03T04:21:56.937Z,100606.77
2022-08-03T04:24:29.890Z,100610.40
2022-08-03T04:27:00.866Z,100611.92
2022-08-03T04:29:33.194Z,100613.94
2022-08-03T04:32:05.269Z,100618.68
2022-08-03T04:34:33.866Z,100621.59
2022-08-03T04:37:09.452Z,100624.34
2022-08-03T04:39:42.489Z,100629.53
2022-08-03T04:42:13.925Z,100630.68
2022-08-03T04:44:45.319Z,100635.08
2022-08-03T04:47:13.830Z,100633.36
2022-08-03T04:49:42.675Z,100632.15
2022-08-03T04:52:11.628Z,100638.98
2022-08-03T04:54:45.927Z,100641.48
2022-08-03T04:57:23.166Z,100641.86
2022-08-03T04:59:56.835Z,100640.76
2022-08-03T05:02:31.410Z,100639.34
2022-08-03T05:05:00.321Z,100636.82
2022-08-03T05:07:35.751Z,100642.08
2022-08-03T05:10:15.743Z,100645.23
2022-08-03T05:12:47.511Z,100644.80
2022-08-03T05:15:17.436Z,100648.15
2022-08-03T05:17:45.939Z,100652.61
2022-08-03T05:20:16.580Z,100653.28
2022-08-03T05:22:48.697Z,100650.70
2022-08-03T05:25:19.820Z,100653.58
2022-08-03T05:27:52.124Z,100656.17
2022-08-03T05:30:31.500Z,100658.11
2022-08-03T05:33:03.918Z,100653.81
2022-08-03T05:35:57.624Z,100654.65
2022-08-03T05:38:34.620Z,100656.38
2022-08-03T05:41:22.000Z,100656.80
2022-08-03T05:43:54.514Z,100659.38
2022-08-03T05:46:23.602Z,100664.70
2022-08-03T05:48:52.559Z,100667.20
2022-08-03T05:51:24.069Z,100664.55
2022-08-03T05:53:52.774Z,100668.66
2022-08-03T05:56:24.591Z,100668.77
2022-08-03T05:58:53.824Z,100667.97
2022-08-03T06:01:22.710Z,100668.80
2022-08-03T06:03:56.493Z,100670.73
2022-08-03T06:06:28.238Z,100672.78
2022-08-03T06:08:59.207Z,100675.52
2022-08-03T06:11:27.787Z,100675.87
2022-08-03T06:13:56.530Z,100675.83
2022-08-03T06:16:25.141Z,100677.67
2022-08-03T06:18:53.555Z,100682.00
2022-08-03T06:21:25.080Z,100681.20
2022-08-03T06:23:56.083Z,100683.84
2022-08-03T06:26:28.132Z,100683.66
2022-08-03T06:28:56.642Z,100682.12
2022-08-03T06:31:33.383Z,100687.63
2022-08-03T06:34:30.603Z,100685.45
2022-08-03T06:37:01.740Z,100684.49
2022-08-03T06:39:31.204Z,100684.36
2022-08-03T06:41:59.925Z,100688.23
2022-08-03T06:44:28.979Z,100691.10
2022-08-03T06:46:58.124Z,100690.45
2022-08-03T06:49:27.450Z,100690.51
2022-08-03T06:52:04.147Z,100690.94
2022-08-03T06:54:34.143Z,100688.39
2022-08-03T06:57:03.011Z,100690.27
2022-08-03T07:00:10.700Z,100689.20
2022-08-03T07:02:20.430Z,100691.05
2022-08-03T07:04:49.489Z,100686.26
2022-08-03T07:07:20.064Z,100684.84
2022-08-03T07:09:56.520Z,100687.98
2022-08-03T07:12:27.543Z,100691.48
2022-08-03T07:15:00.837Z,100695.51
2022-08-03T07:17:35.817Z,100695.16
2022-08-03T07:20:08.057Z,100694.42
2022-08-03T07:22:36.881Z,100692.09
2022-08-03T07:25:07.433Z,100692.50
2022-08-03T07:27:36.554Z,100691.39
2022-08-03T07:30:08.881Z,100688.89
2022-08-03T07:32:50.157Z,100693.53
2022-08-03T07:35:24.284Z,100696.95
2022-08-03T07:37:54.423Z,100696.20
2022-08-03T07:40:23.937Z,100695.64
2022-08-03T07:42:58.573Z,100695.51
2022-08-03T07:45:27.734Z,100697.30
2022-08-03T07:47:56.493Z,100696.28
2022-08-03T07:50:31.638Z,100697.38
2022-08-03T07:53:00.228Z,100699.52
2022-08-03T07:55:29.936Z,100695.26
2022-08-03T07:58:07.036Z,100696.23
2022-08-03T08:00:36.074Z,100694.27
2022-08-03T08:03:05.108Z,100698.14
2022-08-03T08:05:33.734Z,100699.70
2022-08-03T08:08:02.713Z,100698.13
2022-08-03T08:10:32.226Z,100695.56
2022-08-03T08:13:01.606Z,100697.46
2022-08-03T08:15:31.053Z,100697.94
2022-08-03T08:18:01.890Z,100697.10
2022-08-03T08:20:38.344Z,100697.44
2022-08-03T08:23:31.923Z,100698.31
2022-08-03T08:25:57.987Z,100702.00
2022-08-03T08:28:32.114Z,100701.55
2022-08-03T08:31:01.751Z,100700.05
2022-08-03T08:33:48.303Z,100703.58
2022-08-03T08:36:19.884Z,100699.66
2022-08-03T08:38:49.989Z,100703.24
2022-08-03T08:41:18.856Z,100701.27
2022-08-03T08:43:47.492Z,100696.99
2022-08-03T08:46:22.857Z,100698.38
2022-08-03T08:49:04.778Z,100697.33
2022-08-03T08:51:54.800Z,100699.39
2022-08-03T08:54:27.334Z,100694.13
2022-08-03T08:57:02.090Z,100696.09
2022-08-03T08:59:47.617Z,100699.62
2022-08-03T09:02:18.942Z,100698.75
2022-08-03T09:04:49.067Z,100699.11
2022-08-03T09:07:29.126Z,100700.51
2022-08-03T09:10:11.709Z,100700.30
2022-08-03T09:12:44.228Z,100701.08
2022-08-03T09:15:21.728Z,100700.05
2022-08-03T09:17:53.539Z,100698.91
2022-08-03T09:20:24.930Z,100702.64
2022-08-03T09:22:59.107Z,100698.12
2022-08-03T09:25:33.480Z,100700.70
2022-08-03T09:28:10.959Z,100695.89
2022-08-03T09:30:42.074Z,100694.82
2022-08-03T09:33:12.824Z,100688.70
2022-08-03T09:35:54.013Z,100692.81
2022-08-03T09:38:26.860Z,100694.05
2022-08-03T09:41:00.029Z,100691.67
2022-08-03T09:43:47.169Z,100692.08
2022-08-03T09:46:15.661Z,100689.66
2022-08-03T09:48:44.750Z,100687.41
2022-08-03T09:51:32.881Z,100687.83
2022-08-03T09:54:03.822Z,100688.73
2022-08-03T09:56:46.446Z,100688.87
2022-08-03T09:59:28.312Z,100684.55
2022-08-03T10:01:59.301Z,100682.02
2022-08-03T10:04:28.651Z,100675.88
2022-08-03T10:07:05.538Z,100677.92
2022-08-03T10:09:34.086Z,100675.05
2022-08-03T10:12:10.992Z,100670.89
2022-08-03T10:14:46.916Z,100673.55
2022-08-03T10:17:16.591Z,100672.64
2022-08-03T10:19:46.170Z,100669.88
2022-08-03T10:22:16.488Z,100668.75
2022-08-03T10:24:55.105Z,100670.28
2022-08-03T10:27:31.782Z,100669.17
2022-08-03T10:30:05.308Z,100671.03
2022-08-03T10:32:38.547Z,100673.80
2022-08-03T10:35:19.983Z,100679.95
2022-08-03T10:38:00.432Z,100680.44
2022-08-03T10:40:47.927Z,100674.48
2022-08-03T10:43:22.304Z,100674.83
2022-08-03T10:45:52.221Z,100676.27
2022-08-03T10:48:21.996Z,100674.91
2022-08-03T10:50:52.274Z,100674.89
2022-08-03T10:53:36.465Z,100672.41
2022-08-03T10:56:35.697Z,100671.48
2022-08-03T10:59:14.636Z,100672.77
2022-08-03T11:01:58.369Z,100675.34
2022-08-03T11:04:30.747Z,100675.45
2022-08-03T11:07:20.575Z,100674.86
2022-08-03T11:09:51.420Z,100676.85
2022-08-03T11:12:28.336Z,100674.42
2022-08-03T11:15:04.100Z,100668.48
2022-08-03T11:17:46.378Z,100667.27
2022-08-03T11:20:47.821Z,100666.19
2022-08-03T11:24:03.338Z,100660.21
2022-08-03T11:26:26.957Z,100655.13
2022-08-03T11:29:29.182Z,100660.13
2022-08-03T11:31:58.387Z,100655.80
2022-08-03T11:34:27.036Z,100654.40
2022-08-03T11:37:21.392Z,100653.77
2022-08-03T11:39:54.003Z,100653.19
2022-08-03T11:42:47.739Z,100649.97
2022-08-03T11:45:19.303Z,100645.79
2022-08-03T11:47:53.891Z,100645.52
2022-08-03T11:50:24.164Z,100644.89
2022-08-03T11:52:54.437Z,100643.13
2022-08-03T11:55:24.308Z,100646.84
2022-08-03T11:59:19.066Z,100644.00
2022-08-03T12:00:49.447Z,100643.48
2022-08-03T12:03:20.828Z,100646.67
2022-08-03T12:05:52.247Z,100643.77
2022-08-03T12:08:31.732Z,100646.88
2022-08-03T12:11:02.504Z,100644.02
2022-08-03T12:14:43.924Z,100637.75
2022-08-03T12:16:29.304Z,100636.75
2022-08-03T12:19:00.374Z,100635.03
2022-08-03T12:21:29.666Z,100630.22
2022-08-03T12:23:59.644Z,100632.83
2022-08-03T12:26:29.165Z,100631.41
2022-08-03T12:28:59.397Z,100630.23
2022-08-03T12:31:27.879Z,100632.13
2022-08-03T12:33:59.486Z,100631.93
2022-08-03T12:36:29.479Z,100632.55
2022-08-03T12:38:59.834Z,100631.05
2022-08-03T12:41:34.255Z,100628.05
2022-08-03T12:44:03.607Z,100627.77
2022-08-03T12:46:34.355Z,100631.44
2022-08-03T12:49:08.446Z,100624.45
2022-08-03T12:51:55.964Z,100622.44
2022-08-03T12:54:26.169Z,100617.51
2022-08-03T12:57:02.771Z,100620.36
2022-08-03T12:59:35.194Z,100611.28
2022-08-03T13:02:14.500Z,100608.59
2022-08-03T13:04:45.334Z,100606.39
2022-08-03T13:07:15.721Z,100600.88
2022-08-03T13:09:47.606Z,100593.14
2022-08-03T13:12:17.710Z,100594.64
2022-08-03T13:14:47.816Z,100593.08
2022-08-03T13:17:17.100Z,100591.73
2022-08-03T13:19:47.251Z,100595.34
2022-08-03T13:22:18.635Z,100595.40
2022-08-03T13:24:48.994Z,100595.83
2022-08-03T13:28:02.665Z,100595.86
2022-08-03T13:30:10.168Z,100596.15
2022-08-03T13:32:40.838Z,100592.89
2022-08-03T13:35:10.511Z,100588.27
2022-08-03T13:37:39.712Z,100584.78
2022-08-03T13:40:11.574Z,100586.91
2022-08-03T13:42:40.730Z,100584.48
2022-08-03T13:45:18.820Z,100583.77
2022-08-03T13:47:48.552Z,100580.93
2022-08-03T13:50:18.756Z,100581.39
2022-08-03T13:52:47.662Z,100579.42
2022-08-03T13:55:16.137Z,100582.45
2022-08-03T13:58:03.079Z,100580.13
2022-08-03T14:00:34.106Z,100576.72
2022-08-03T14:03:12.653Z,100576.42
2022-08-03T14:05:43.531Z,100575.96
2022-08-03T14:08:12.765Z,100575.55
2022-08-03T14:10:44.383Z,100573.67
2022-08-03T14:13:16.608Z,100570.40
2022-08-03T14:15:50.309Z,100573.78
2022-08-03T14:18:28.322Z,100568.73
2022-08-03T14:21:03.388Z,100569.91
2022-08-03T14:23:35.164Z,100565.79
2022-08-03T14:26:04.598Z,100563.04
2022-08-03T14:28:33.350Z,100560.75
2022-08-03T14:31:02.788Z,100556.98
2022-08-03T14:33:31.258Z,100556.90
2022-08-03T14:36:00.403Z,100550.06
2022-08-03T14:38:29.943Z,100550.13
2022-08-03T14:40:59.650Z,100548.25
2022-08-03T14:43:34.022Z,100545.02
2022-08-03T14:46:02.923Z,100543.42
2022-08-03T14:50:31.857Z,100543.48
2022-08-03T14:51:20.130Z,100542.92
2022-08-03T14:53:48.979Z,100540.31
2022-08-03T14:56:17.937Z,100541.80
2022-08-03T14:58:46.976Z,100538.30
2022-08-03T15:02:04.628Z,100536.88
2022-08-03T15:04:06.198Z,100538.81
2022-08-03T15:06:34.743Z,100541.18
2022-08-03T15:09:21.229Z,100540.11
2022-08-03T15:11:52.443Z,100538.65
2022-08-03T15:14:22.226Z,100542.57
2022-08-03T15:16:57.608Z,100538.60
2022-08-03T15:20:02.294Z,100538.98
2022-08-03T15:22:16.685Z,100532.94
2022-08-03T15:24:49.525Z,100532.82
2022-08-03T15:27:18.112Z,100532.54
2022-08-03T15:30:05.357Z,100529.46
2022-08-03T15:32:40.150Z,100527.98
2022-08-03T15:35:09.332Z,100525.78
2022-08-03T15:37:37.792Z,100525.75
2022-08-03T15:40:08.658Z,100527.54
2022-08-03T15:42:37.318Z,100521.86
2022-08-03T15:45:08.223Z,100524.93
2022-08-03T15:47:37.033Z,100524.06
2022-08-03T15:50:09.785Z,100521.66
2022-08-03T15:52:46.102Z,100517.73
2022-08-03T15:55:15.446Z,100517.30
2022-08-03T15:59:04.324Z,100514.65
2022-08-03T16:00:34.652Z,100512.70
2022-08-03T16:03:03.302Z,100506.87
2022-08-03T16:05:32.134Z,100503.89
2022-08-03T16:08:06.224Z,100501.52
2022-08-03T16:10:37.325Z,100500.02
2022-08-03T16:13:06.264Z,100501.05
2022-08-03T16:15:38.528Z,100501.80
2022-08-03T16:18:07.632Z,100495.88
2022-08-03T16:20:36.495Z,100497.66
2022-08-03T16:23:11.257Z,100494.35
2022-08-03T16:25:41.547Z,100495.14
2022-08-03T16:28:14.631Z,100492.71
2022-08-03T16:30:45.489Z,100495.98
2022-08-03T16:33:17.407Z,100493.31
2022-08-03T16:35:49.247Z,100495.45
2022-08-03T16:38:19.344Z,100490.73
2022-08-03T16:40:51.529Z,100490.98
2022-08-03T16:43:21.944Z,100496.01
2022-08-03T16:45:50.825Z,100488.04
2022-08-03T16:48:20.458Z,100487.87
2022-08-03T16:50:49.931Z,100488.01
2022-08-03T16:53:33.106Z,100488.58
2022-08-03T16:56:10.748Z,100489.60
2022-08-03T16:58:44.167Z,100494.91
2022-08-03T17:01:21.972Z,100497.38
2022-08-03T17:04:02.756Z,100494.60
2022-08-03T17:06:36.286Z,100498.01
2022-08-03T17:09:09.072Z,100499.13
2022-08-03T17:11:47.126Z,100503.42
2022-08-03T17:14:22.077Z,100501.89
2022-08-03T17:16:57.921Z,100503.69
2022-08-03T17:19:29.073Z,100507.98
2022-08-03T17:22:01.797Z,100507.06
2022-08-03T17:24:35.535Z,100507.46
2022-08-03T17:28:42.307Z,100510.73
2022-08-03T17:30:09.249Z,100513.61
2022-08-03T17:32:42.281Z,100517.19
2022-08-03T17:35:12.710Z,100515.52
2022-08-03T17:37:58.005Z,100519.96
2022-08-03T17:40:33.924Z,100519.95
2022-08-03T17:44:13.534Z,100525.11
2022-08-03T17:45:54.637Z,100526.83
2022-08-03T17:48:25.033Z,100530.89
2022-08-03T17:51:04.724Z,100532.92
2022-08-03T17:53:38.783Z,100539.31
2022-08-03T17:56:38.838Z,100543.43
2022-08-03T17:59:16.981Z,100547.54
2022-08-03T18:02:47.518Z,100547.57
2022-08-03T18:05:21.877Z,100550.05
2022-08-03T18:07:59.166Z,100550.60
2022-08-03T18:10:36.062Z,100552.56
2022-08-03T18:13:10.509Z,100554.88
2022-08-03T18:15:43.366Z,100556.45
2022-08-03T18:18:16.846Z,100559.38
2022-08-03T18:21:04.582Z,100557.86
2022-08-03T18:23:37.691Z,100562.36
2022-08-03T18:26:11.985Z,100561.45
2022-08-03T18:28:45.145Z,100566.95
2022-08-03T18:31:59.920Z,100569.39
2022-08-03T18:34:19.854Z,100572.77
2022-08-03T18:36:59.742Z,100580.71
2022-08-03T18:39:30.654Z,100585.30
2022-08-03T18:42:02.898Z,100589.45
2022-08-03T18:47:52.873Z,100600.07
2022-08-03T18:50:29.263Z,100601.70
2022-08-03T18:53:16.643Z,100603.97
2022-08-03T18:56:01.897Z,100603.46
2022-08-03T18:58:40.928Z,100605.48
2022-08-03T19:01:57.723Z,100606.20
2022-08-03T19:04:13.251Z,100605.87
2022-08-03T19:06:45.030Z,100606.84
2022-08-03T19:09:27.848Z,100606.65
2022-08-03T19:12:13.899Z,100606.65
2022-08-03T19:14:56.394Z,100606.77
2022-08-03T19:17:29.513Z,100608.09
2022-08-03T19:20:01.645Z,100606.52
2022-08-03T19:22:32.367Z,100607.22
2022-08-03T19:25:02.132Z,100611.48
2022-08-03T19:27:32.805Z,100609.14
2022-08-03T19:30:11.899Z,100611.55
2022-08-03T19:32:50.777Z,100607.91
2022-08-03T19:35:46.676Z,100609.27
2022-08-03T19:38:10.311Z,100612.06
2022-08-03T19:40:44.823Z,100607.61
2022-08-03T19:43:26.385Z,100611.54
2022-08-03T19:46:15.009Z,100608.17
2022-08-03T19:48:51.482Z,100609.33
2022-08-03T19:51:26.490Z,100610.02
2022-08-03T19:54:14.120Z,100607.05
2022-08-03T19:56:47.417Z,100609.68
2022-08-03T19:59:19.138Z,100609.09
2022-08-03T20:01:50.659Z,100609.05
2022-08-03T20:04:20.484Z,100607.87
2022-08-03T20:06:52.268Z,100606.98
2022-08-03T20:09:30.316Z,100608.23
2022-08-03T20:12:00.798Z,100608.74
2022-08-03T20:14:33.170Z,100610.25
2022-08-03T20:17:01.910Z,100612.48
2022-08-03T20:19:32.775Z,100613.02
2022-08-03T20:22:08.416Z,100608.64
2022-08-03T20:24:52.337Z,100610.91
2022-08-03T20:27:24.246Z,100608.70
2022-08-03T20:30:06.916Z,100613.47
2022-08-03T20:32:37.176Z,100611.32
2022-08-03T20:35:09.972Z,100616.63
2022-08-03T20:37:40.772Z,100614.96
2022-08-03T20:40:13.315Z,100614.98
2022-08-03T20:42:43.211Z,100614.11
2022-08-03T20:46:00.321Z,100613.89
2022-08-03T20:48:02.143Z,100608.96
2022-08-03T20:50:30.962Z,100610.04
2022-08-03T20:53:08.054Z,100608.18
2022-08-03T20:55:47.627Z,100610.55
2022-08-03T20:58:35.326Z,100614.83
2022-08-03T21:01:05.183Z,100617.38
2022-08-03T21:03:40.812Z,100620.20
2022-08-03T21:06:27.715Z,100617.81
2022-08-03T21:09:12.643Z,100619.74
2022-08-03T21:11:47.639Z,100620.27
2022-08-03T21:13:04.956Z,100594.75
2022-08-03T21:14:35.069Z,100621.64
2022-08-03T21:17:25.016Z,100620.36
2022-08-03T21:20:01.132Z,100620.82
2022-08-03T21:22:32.890Z,100624.08
2022-08-03T21:25:05.245Z,100622.96
2022-08-03T21:27:34.392Z,100628.52
2022-08-03T21:30:11.719Z,100628.94
2022-08-03T21:32:44.855Z,100630.13
2022-08-03T21:35:15.817Z,100627.18
2022-08-03T21:37:46.746Z,100626.82
2022-08-03T21:40:16.720Z,100628.81
2022-08-03T21:42:47.037Z,100628.04
2022-08-03T21:45:17.648Z,100629.23
2022-08-03T21:47:47.812Z,100629.98
2022-08-03T21:50:17.080Z,100631.48
2022-08-03T21:52:48.939Z,100634.77
2022-08-03T21:55:20.544Z,100631.05
2022-08-03T21:57:53.915Z,100634.14
2022-08-03T22:00:23.423Z,100634.95
2022-08-03T22:02:55.240Z,100636.41
2022-08-03T22:05:42.468Z,100636.98
2022-08-03T22:08:13.568Z,100637.59
2022-08-03T22:10:44.880Z,100641.70
2022-08-03T22:13:14.852Z,100637.92
2022-08-03T22:15:44.178Z,100637.66
2022-08-03T22:18:12.671Z,100638.63
2022-08-03T22:20:41.473Z,100638.66
2022-08-03T22:23:11.146Z,100634.05
2022-08-03T22:25:40.940Z,100636.45
2022-08-03T22:28:12.488Z,100635.80
2022-08-03T22:30:42.713Z,100635.50
2022-08-03T22:33:14.428Z,100639.08
2022-08-03T22:35:47.468Z,100637.95
2022-08-03T22:38:18.488Z,100635.41
2022-08-03T22:40:49.232Z,100635.27
2022-08-03T22:43:21.874Z,100633.61
2022-08-03T22:46:09.066Z,100635.20
2022-08-03T22:48:41.196Z,100635.00
2022-08-03T22:51:11.162Z,100636.75
2022-08-03T22:53:40.477Z,100638.23
2022-08-03T22:56:09.978Z,100634.98
2022-08-03T22:58:38.664Z,100635.79
2022-08-03T23:01:11.992Z,100630.02
2022-08-03T23:04:00.749Z,100626.90
2022-08-03T23:06:35.503Z,100626.38
2022-08-03T23:09:07.661Z,100629.86
2022-08-03T23:11:38.377Z,100636.77
2022-08-03T23:14:15.908Z,100631.47
2022-08-03T23:16:46.614Z,100631.36
2022-08-03T23:19:25.365Z,100633.61
2022-08-03T23:22:02.371Z,100628.27
2022-08-03T23:24:36.513Z,100632.98
2022-08-03T23:27:06.290Z,100624.81
2022-08-03T23:29:37.447Z,100626.05
2022-08-03T23:32:07.894Z,100624.17
2022-08-03T23:34:58.260Z,100627.48
2022-08-03T23:37:27.357Z,100626.30
2022-08-03T23:39:57.226Z,100627.34
2022-08-03T23:42:27.319Z,100626.88
2022-08-03T23:44:59.505Z,100625.18
2022-08-03T23:47:46.519Z,100623.13
2022-08-03T23:50:17.378Z,100620.59
2022-08-03T23:52:56.940Z,100620.63
2022-08-03T23:55:40.394Z,100620.83
2022-08-03T23:58:18.736Z,100621.21
